sensor_id;sensor_type;location;lat;lon;timestamp;pressure;altitude;pressure_sealevel;temperature;humidity
22031;BME280;11179;52.106;21.024;2022-12-18T00:01:23;101826.44;;;-4.68;66.05
22031;BME280;11179;52.106;21.024;2022-12-18T00:03:51;101817.28;;;-4.65;66.15
22031;BME280;11179;52.106;21.024;2022-12-18T00:06:17;101818.84;;;-4.63;66.00
22031;BME280;11179;52.106;21.024;2022-12-18T00:08:43;101824.22;;;-4.63;65.96
22031;BME280;11179;52.106;21.024;2022-12-18T00:11:13;101833.13;;;-4.62;65.97
22031;BME280;11179;52.106;21.024;2022-12-18T00:13:38;101833.00;;;-4.61;65.94
22031;BME280;11179;52.106;21.024;2022-12-18T00:16:06;101837.50;;;-4.61;65.96
22031;BME280;11179;52.106;21.024;2022-12-18T00:18:33;101850.03;;;-4.62;65.90
22031;BME280;11179;52.106;21.024;2022-12-18T00:21:00;101838.00;;;-4.67;65.98
22031;BME280;11179;52.106;21.024;2022-12-18T00:23:26;101838.88;;;-4.67;66.08
22031;BME280;11179;52.106;21.024;2022-12-18T00:25:52;101838.09;;;-4.58;66.01
22031;BME280;11179;52.106;21.024;2022-12-18T00:28:17;101845.28;;;-4.58;66.05
22031;BME280;11179;52.106;21.024;2022-12-18T00:30:43;101846.75;;;-4.54;66.15
22031;BME280;11179;52.106;21.024;2022-12-18T00:33:08;101849.28;;;-4.53;66.03
22031;BME280;11179;52.106;21.024;2022-12-18T00:35:33;101846.59;;;-4.53;65.90
22031;BME280;11179;52.106;21.024;2022-12-18T00:37:59;101849.78;;;-4.47;65.72
22031;BME280;11179;52.106;21.024;2022-12-18T00:40:24;101848.06;;;-4.48;65.92
22031;BME280;11179;52.106;21.024;2022-12-18T00:42:49;101859.28;;;-4.43;65.99
22031;BME280;11179;52.106;21.024;2022-12-18T00:45:29;101862.31;;;-4.37;66.08
22031;BME280;11179;52.106;21.024;2022-12-18T00:47:55;101863.16;;;-4.36;65.95
22031;BME280;11179;52.106;21.024;2022-12-18T00:50:22;101862.44;;;-4.38;65.96
22031;BME280;11179;52.106;21.024;2022-12-18T00:52:47;101879.00;;;-4.33;66.00
22031;BME280;11179;52.106;21.024;2022-12-18T00:55:13;101877.91;;;-4.31;66.12
22031;BME280;11179;52.106;21.024;2022-12-18T00:57:39;101876.69;;;-4.27;66.04
22031;BME280;11179;52.106;21.024;2022-12-18T01:00:06;101873.41;;;-4.30;66.01
22031;BME280;11179;52.106;21.024;2022-12-18T01:02:32;101882.19;;;-4.28;66.08
22031;BME280;11179;52.106;21.024;2022-12-18T01:04:57;101884.75;;;-4.27;66.08
22031;BME280;11179;52.106;21.024;2022-12-18T01:07:23;101876.22;;;-4.32;65.95
22031;BME280;11179;52.106;21.024;2022-12-18T01:09:48;101890.09;;;-4.27;66.12
22031;BME280;11179;52.106;21.024;2022-12-18T01:12:14;101894.63;;;-4.27;66.18
22031;BME280;11179;52.106;21.024;2022-12-18T01:14:39;101896.91;;;-4.23;66.20
22031;BME280;11179;52.106;21.024;2022-12-18T01:17:04;101892.38;;;-4.22;66.18
22031;BME280;11179;52.106;21.024;2022-12-18T01:19:30;101896.66;;;-4.20;66.03
22031;BME280;11179;52.106;21.024;2022-12-18T01:21:55;101902.13;;;-4.21;66.26
22031;BME280;11179;52.106;21.024;2022-12-18T01:24:21;101910.81;;;-4.18;66.02
22031;BME280;11179;52.106;21.024;2022-12-18T01:26:46;101907.03;;;-4.15;66.22
22031;BME280;11179;52.106;21.024;2022-12-18T01:29:12;101907.50;;;-4.21;66.08
22031;BME280;11179;52.106;21.024;2022-12-18T01:31:37;101914.34;;;-4.17;66.30
22031;BME280;11179;52.106;21.024;2022-12-18T01:34:04;101916.78;;;-4.14;66.22
22031;BME280;11179;52.106;21.024;2022-12-18T01:36:34;101922.13;;;-4.14;66.20
22031;BME280;11179;52.106;21.024;2022-12-18T01:39:03;101921.63;;;-4.08;66.10
22031;BME280;11179;52.106;21.024;2022-12-18T01:41:31;101927.97;;;-4.09;66.13
22031;BME280;11179;52.106;21.024;2022-12-18T01:49:52;101938.34;;;-4.04;66.06
22031;BME280;11179;52.106;21.024;2022-12-18T01:52:18;101925.28;;;-4.09;65.97
22031;BME280;11179;52.106;21.024;2022-12-18T01:54:45;101936.63;;;-4.05;65.99
22031;BME280;11179;52.106;21.024;2022-12-18T01:57:11;101934.91;;;-4.06;65.79
22031;BME280;11179;52.106;21.024;2022-12-18T01:59:38;101946.97;;;-4.12;65.89
22031;BME280;11179;52.106;21.024;2022-12-18T02:02:06;101941.63;;;-4.12;65.68
22031;BME280;11179;52.106;21.024;2022-12-18T02:04:32;101944.44;;;-4.13;66.00
22031;BME280;11179;52.106;21.024;2022-12-18T02:09:38;101959.94;;;-4.17;66.00
22031;BME280;11179;52.106;21.024;2022-12-18T02:12:16;101964.53;;;-4.08;65.83
22031;BME280;11179;52.106;21.024;2022-12-18T02:14:57;101962.59;;;-4.06;65.84
22031;BME280;11179;52.106;21.024;2022-12-18T02:18:07;101964.78;;;-4.11;65.79
22031;BME280;11179;52.106;21.024;2022-12-18T02:20:39;101955.31;;;-4.15;65.79
22031;BME280;11179;52.106;21.024;2022-12-18T02:23:24;101968.19;;;-4.09;65.82
22031;BME280;11179;52.106;21.024;2022-12-18T02:26:16;101983.81;;;-4.03;65.81
22031;BME280;11179;52.106;21.024;2022-12-18T02:28:49;101985.78;;;-4.05;65.79
22031;BME280;11179;52.106;21.024;2022-12-18T02:31:21;101988.66;;;-3.97;65.90
22031;BME280;11179;52.106;21.024;2022-12-18T02:33:49;101997.44;;;-3.95;65.63
22031;BME280;11179;52.106;21.024;2022-12-18T02:36:16;102000.00;;;-3.93;65.73
22031;BME280;11179;52.106;21.024;2022-12-18T02:38:44;101997.94;;;-3.90;65.77
22031;BME280;11179;52.106;21.024;2022-12-18T02:41:11;101997.81;;;-3.88;65.72
22031;BME280;11179;52.106;21.024;2022-12-18T02:43:38;102010.88;;;-3.95;65.63
22031;BME280;11179;52.106;21.024;2022-12-18T02:46:27;102016.84;;;-3.91;65.59
22031;BME280;11179;52.106;21.024;2022-12-18T02:49:01;102007.09;;;-3.92;65.98
22031;BME280;11179;52.106;21.024;2022-12-18T02:51:33;102009.41;;;-3.88;65.75
22031;BME280;11179;52.106;21.024;2022-12-18T02:54:10;102004.63;;;-3.84;65.67
22031;BME280;11179;52.106;21.024;2022-12-18T02:56:46;102019.03;;;-3.85;65.65
22031;BME280;11179;52.106;21.024;2022-12-18T02:59:38;102030.38;;;-3.82;65.57
22031;BME280;11179;52.106;21.024;2022-12-18T03:04:47;102038.66;;;-3.85;65.65
22031;BME280;11179;52.106;21.024;2022-12-18T03:07:18;102036.84;;;-3.84;65.52
22031;BME280;11179;52.106;21.024;2022-12-18T03:09:48;102035.13;;;-3.85;65.67
22031;BME280;11179;52.106;21.024;2022-12-18T03:12:20;102030.28;;;-3.91;65.66
22031;BME280;11179;52.106;21.024;2022-12-18T03:14:52;102046.72;;;-3.85;65.66
22031;BME280;11179;52.106;21.024;2022-12-18T03:17:20;102040.16;;;-3.92;65.75
22031;BME280;11179;52.106;21.024;2022-12-18T03:19:48;102048.69;;;-3.87;65.72
22031;BME280;11179;52.106;21.024;2022-12-18T03:22:15;102059.16;;;-3.84;65.80
22031;BME280;11179;52.106;21.024;2022-12-18T03:24:41;102052.09;;;-3.85;65.65
22031;BME280;11179;52.106;21.024;2022-12-18T03:27:11;102060.88;;;-3.83;65.53
22031;BME280;11179;52.106;21.024;2022-12-18T03:29:43;102059.16;;;-3.95;65.61
22031;BME280;11179;52.106;21.024;2022-12-18T03:32:19;102062.94;;;-3.97;65.51
22031;BME280;11179;52.106;21.024;2022-12-18T03:34:48;102071.25;;;-3.89;65.61
22031;BME280;11179;52.106;21.024;2022-12-18T03:37:15;102071.38;;;-3.91;65.65
22031;BME280;11179;52.106;21.024;2022-12-18T03:39:40;102068.44;;;-3.99;65.61
22031;BME280;11179;52.106;21.024;2022-12-18T03:50:12;102084.78;;;-3.91;65.43
22031;BME280;11179;52.106;21.024;2022-12-18T03:52:57;102082.47;;;-3.95;65.43
22031;BME280;11179;52.106;21.024;2022-12-18T03:55:28;102077.59;;;-4.01;65.35
22031;BME280;11179;52.106;21.024;2022-12-18T03:57:56;102079.56;;;-4.03;65.39
22031;BME280;11179;52.106;21.024;2022-12-18T04:00:22;102086.00;;;-4.06;65.38
22031;BME280;11179;52.106;21.024;2022-12-18T04:02:51;102106.16;;;-4.00;65.29
22031;BME280;11179;52.106;21.024;2022-12-18T04:05:17;102103.59;;;-4.02;65.42
22031;BME280;11179;52.106;21.024;2022-12-18T04:07:45;102104.44;;;-4.01;65.36
22031;BME280;11179;52.106;21.024;2022-12-18T04:10:12;102105.75;;;-4.07;65.28
22031;BME280;11179;52.106;21.024;2022-12-18T04:12:38;102099.91;;;-4.12;65.38
22031;BME280;11179;52.106;21.024;2022-12-18T04:15:05;102102.34;;;-4.09;65.40
22031;BME280;11179;52.106;21.024;2022-12-18T04:17:30;102115.16;;;-4.01;65.26
22031;BME280;11179;52.106;21.024;2022-12-18T04:19:56;102112.97;;;-3.96;65.20
22031;BME280;11179;52.106;21.024;2022-12-18T04:22:21;102121.97;;;-3.97;65.17
22031;BME280;11179;52.106;21.024;2022-12-18T04:24:46;102118.22;;;-4.06;65.22
22031;BME280;11179;52.106;21.024;2022-12-18T04:27:12;102131.97;;;-3.99;65.28
22031;BME280;11179;52.106;21.024;2022-12-18T04:29:37;102121.41;;;-4.01;65.10
22031;BME280;11179;52.106;21.024;2022-12-18T04:32:03;102134.06;;;-4.03;65.05
22031;BME280;11179;52.106;21.024;2022-12-18T04:34:28;102116.25;;;-4.15;65.16
22031;BME280;11179;52.106;21.024;2022-12-18T04:36:53;102144.28;;;-4.08;65.13
22031;BME280;11179;52.106;21.024;2022-12-18T04:39:19;102138.81;;;-4.18;65.02
22031;BME280;11179;52.106;21.024;2022-12-18T04:41:44;102154.03;;;-4.18;65.11
22031;BME280;11179;52.106;21.024;2022-12-18T04:44:10;102139.88;;;-4.31;64.97
22031;BME280;11179;52.106;21.024;2022-12-18T04:46:35;102153.28;;;-4.31;65.05
22031;BME280;11179;52.106;21.024;2022-12-18T04:49:01;102167.19;;;-4.26;64.96
22031;BME280;11179;52.106;21.024;2022-12-18T04:51:26;102160.47;;;-4.32;64.84
22031;BME280;11179;52.106;21.024;2022-12-18T04:53:52;102156.31;;;-4.36;65.00
22031;BME280;11179;52.106;21.024;2022-12-18T04:56:18;102164.13;;;-4.33;64.89
22031;BME280;11179;52.106;21.024;2022-12-18T04:58:44;102169.09;;;-4.39;64.81
22031;BME280;11179;52.106;21.024;2022-12-18T05:01:11;102171.06;;;-4.41;65.01
22031;BME280;11179;52.106;21.024;2022-12-18T05:03:37;102170.31;;;-4.43;64.98
22031;BME280;11179;52.106;21.024;2022-12-18T05:06:04;102173.69;;;-4.53;65.05
22031;BME280;11179;52.106;21.024;2022-12-18T05:08:29;102170.50;;;-4.58;64.93
22031;BME280;11179;52.106;21.024;2022-12-18T05:11:04;102182.09;;;-4.57;64.93
22031;BME280;11179;52.106;21.024;2022-12-18T05:13:31;102197.31;;;-4.58;64.92
22031;BME280;11179;52.106;21.024;2022-12-18T05:15:56;102198.72;;;-4.65;64.92
22031;BME280;11179;52.106;21.024;2022-12-18T05:18:25;102200.41;;;-4.75;65.07
22031;BME280;11179;52.106;21.024;2022-12-18T05:20:51;102219.28;;;-4.76;65.14
22031;BME280;11179;52.106;21.024;2022-12-18T05:23:17;102223.03;;;-4.79;65.13
22031;BME280;11179;52.106;21.024;2022-12-18T05:25:42;102217.66;;;-4.79;65.11
22031;BME280;11179;52.106;21.024;2022-12-18T05:28:08;102210.31;;;-4.88;65.12
22031;BME280;11179;52.106;21.024;2022-12-18T05:30:33;102203.81;;;-4.97;65.12
22031;BME280;11179;52.106;21.024;2022-12-18T05:32:58;102219.69;;;-4.94;65.05
22031;BME280;11179;52.106;21.024;2022-12-18T05:35:24;102230.50;;;-4.95;65.22
22031;BME280;11179;52.106;21.024;2022-12-18T05:37:49;102233.19;;;-4.95;65.56
22031;BME280;11179;52.106;21.024;2022-12-18T05:40:15;102240.13;;;-4.93;65.54
22031;BME280;11179;52.106;21.024;2022-12-18T05:42:40;102223.13;;;-5.04;65.55
22031;BME280;11179;52.106;21.024;2022-12-18T05:45:06;102231.78;;;-5.01;65.67
22031;BME280;11179;52.106;21.024;2022-12-18T05:47:31;102236.09;;;-4.98;65.78
22031;BME280;11179;52.106;21.024;2022-12-18T05:49:57;102244.00;;;-4.97;65.67
22031;BME280;11179;52.106;21.024;2022-12-18T05:52:23;102235.22;;;-4.99;65.76
22031;BME280;11179;52.106;21.024;2022-12-18T05:54:48;102235.88;;;-4.95;66.01
22031;BME280;11179;52.106;21.024;2022-12-18T05:57:13;102241.97;;;-4.93;65.88
22031;BME280;11179;52.106;21.024;2022-12-18T05:59:39;102239.16;;;-4.92;65.87
22031;BME280;11179;52.106;21.024;2022-12-18T06:02:04;102234.16;;;-4.96;65.84
22031;BME280;11179;52.106;21.024;2022-12-18T06:04:30;102239.50;;;-4.96;65.91
22031;BME280;11179;52.106;21.024;2022-12-18T06:06:55;102242.69;;;-4.91;66.03
22031;BME280;11179;52.106;21.024;2022-12-18T06:09:20;102251.47;;;-4.89;65.97
22031;BME280;11179;52.106;21.024;2022-12-18T06:11:46;102276.88;;;-4.82;65.95
22031;BME280;11179;52.106;21.024;2022-12-18T06:14:11;102274.59;;;-4.75;65.99
22031;BME280;11179;52.106;21.024;2022-12-18T06:16:36;102281.56;;;-4.73;66.03
22031;BME280;11179;52.106;21.024;2022-12-18T06:19:05;102291.31;;;-4.72;65.92
22031;BME280;11179;52.106;21.024;2022-12-18T06:21:31;102298.59;;;-4.74;66.05
22031;BME280;11179;52.106;21.024;2022-12-18T06:23:56;102291.84;;;-4.79;66.14
22031;BME280;11179;52.106;21.024;2022-12-18T06:26:22;102313.28;;;-4.67;65.97
22031;BME280;11179;52.106;21.024;2022-12-18T06:28:48;102318.19;;;-4.61;66.10
22031;BME280;11179;52.106;21.024;2022-12-18T06:31:14;102317.22;;;-4.60;66.07
22031;BME280;11179;52.106;21.024;2022-12-18T06:33:39;102319.78;;;-4.58;66.06
22031;BME280;11179;52.106;21.024;2022-12-18T06:36:12;102324.72;;;-4.65;65.97
22031;BME280;11179;52.106;21.024;2022-12-18T06:38:40;102328.38;;;-4.66;66.11
22031;BME280;11179;52.106;21.024;2022-12-18T06:41:07;102324.00;;;-4.67;66.09
22031;BME280;11179;52.106;21.024;2022-12-18T06:43:33;102333.06;;;-4.57;66.10
22031;BME280;11179;52.106;21.024;2022-12-18T06:46:02;102325.06;;;-4.69;66.04
22031;BME280;11179;52.106;21.024;2022-12-18T06:48:28;102342.28;;;-4.61;66.18
22031;BME280;11179;52.106;21.024;2022-12-18T06:50:53;102351.09;;;-4.59;65.95
22031;BME280;11179;52.106;21.024;2022-12-18T06:53:19;102358.06;;;-4.56;66.24
22031;BME280;11179;52.106;21.024;2022-12-18T06:55:44;102338.13;;;-4.65;66.22
22031;BME280;11179;52.106;21.024;2022-12-18T06:58:09;102352.34;;;-4.52;66.33
22031;BME280;11179;52.106;21.024;2022-12-18T07:00:35;102359.63;;;-4.41;66.11
22031;BME280;11179;52.106;21.024;2022-12-18T07:03:00;102364.13;;;-4.41;66.21
22031;BME280;11179;52.106;21.024;2022-12-18T07:05:26;102372.47;;;-4.33;66.12
22031;BME280;11179;52.106;21.024;2022-12-18T07:07:51;102379.53;;;-4.32;66.08
22031;BME280;11179;52.106;21.024;2022-12-18T07:10:17;102374.38;;;-4.35;66.14
22031;BME280;11179;52.106;21.024;2022-12-18T07:12:42;102386.31;;;-4.39;66.15
22031;BME280;11179;52.106;21.024;2022-12-18T07:15:08;102387.53;;;-4.43;66.13
22031;BME280;11179;52.106;21.024;2022-12-18T07:17:33;102384.63;;;-4.40;66.29
22031;BME280;11179;52.106;21.024;2022-12-18T07:19:59;102392.19;;;-4.34;66.31
22031;BME280;11179;52.106;21.024;2022-12-18T07:22:25;102400.78;;;-4.29;66.29
22031;BME280;11179;52.106;21.024;2022-12-18T07:24:50;102391.97;;;-4.31;66.24
22031;BME280;11179;52.106;21.024;2022-12-18T07:27:16;102403.75;;;-4.21;66.26
22031;BME280;11179;52.106;21.024;2022-12-18T07:29:41;102366.56;;;-4.38;66.01
22031;BME280;11179;52.106;21.024;2022-12-18T07:32:06;102398.66;;;-4.13;66.00
22031;BME280;11179;52.106;21.024;2022-12-18T07:34:32;102393.28;;;-4.13;66.02
22031;BME280;11179;52.106;21.024;2022-12-18T07:36:58;102408.19;;;-4.09;65.83
22031;BME280;11179;52.106;21.024;2022-12-18T07:39:23;102395.63;;;-4.08;66.00
22031;BME280;11179;52.106;21.024;2022-12-18T07:41:48;102390.16;;;-4.07;65.95
22031;BME280;11179;52.106;21.024;2022-12-18T07:44:34;102415.00;;;-3.92;65.78
22031;BME280;11179;52.106;21.024;2022-12-18T07:46:59;102415.88;;;-3.92;65.65
22031;BME280;11179;52.106;21.024;2022-12-18T07:49:25;102425.91;;;-3.83;65.63
22031;BME280;11179;52.106;21.024;2022-12-18T07:51:50;102425.47;;;-3.76;65.56
22031;BME280;11179;52.106;21.024;2022-12-18T07:54:15;102429.59;;;-3.72;65.53
22031;BME280;11179;52.106;21.024;2022-12-18T07:56:41;102423.25;;;-3.71;65.44
22031;BME280;11179;52.106;21.024;2022-12-18T07:59:06;102440.88;;;-3.67;65.46
22031;BME280;11179;52.106;21.024;2022-12-18T08:01:33;102443.44;;;-3.66;65.36
22031;BME280;11179;52.106;21.024;2022-12-18T08:03:58;102445.28;;;-3.66;65.37
22031;BME280;11179;52.106;21.024;2022-12-18T08:06:24;102459.78;;;-3.69;65.26
22031;BME280;11179;52.106;21.024;2022-12-18T08:08:53;102461.16;;;-3.63;65.39
22031;BME280;11179;52.106;21.024;2022-12-18T08:11:19;102450.19;;;-3.60;65.15
22031;BME280;11179;52.106;21.024;2022-12-18T08:13:45;102456.06;;;-3.55;64.98
22031;BME280;11179;52.106;21.024;2022-12-18T08:16:10;102473.81;;;-3.41;65.03
22031;BME280;11179;52.106;21.024;2022-12-18T08:18:36;102462.22;;;-3.42;64.88
22031;BME280;11179;52.106;21.024;2022-12-18T08:21:14;102474.44;;;-3.38;64.70
22031;BME280;11179;52.106;21.024;2022-12-18T08:23:40;102475.41;;;-3.39;64.71
22031;BME280;11179;52.106;21.024;2022-12-18T08:26:06;102475.94;;;-3.34;64.56
22031;BME280;11179;52.106;21.024;2022-12-18T08:28:31;102481.78;;;-3.29;64.66
22031;BME280;11179;52.106;21.024;2022-12-18T08:30:57;102491.34;;;-3.25;64.56
22031;BME280;11179;52.106;21.024;2022-12-18T08:33:22;102492.69;;;-3.19;64.61
22031;BME280;11179;52.106;21.024;2022-12-18T08:35:47;102496.63;;;-3.12;64.45
22031;BME280;11179;52.106;21.024;2022-12-18T08:38:13;102481.84;;;-3.07;64.46
22031;BME280;11179;52.106;21.024;2022-12-18T08:40:38;102502.25;;;-3.04;64.29
22031;BME280;11179;52.106;21.024;2022-12-18T08:43:04;102501.47;;;-2.93;64.23
22031;BME280;11179;52.106;21.024;2022-12-18T08:45:48;102492.78;;;-2.86;64.08
22031;BME280;11179;52.106;21.024;2022-12-18T08:48:14;102490.09;;;-2.86;63.73
22031;BME280;11179;52.106;21.024;2022-12-18T08:50:39;102486.91;;;-2.80;63.70
22031;BME280;11179;52.106;21.024;2022-12-18T08:53:04;102497.31;;;-2.75;63.51
22031;BME280;11179;52.106;21.024;2022-12-18T08:55:30;102495.38;;;-2.73;63.47
22031;BME280;11179;52.106;21.024;2022-12-18T08:57:55;102498.69;;;-2.69;63.53
22031;BME280;11179;52.106;21.024;2022-12-18T09:00:21;102499.44;;;-2.67;63.25
22031;BME280;11179;52.106;21.024;2022-12-18T09:02:46;102511.91;;;-2.55;63.02
22031;BME280;11179;52.106;21.024;2022-12-18T09:05:11;102519.59;;;-2.51;63.08
22031;BME280;11179;52.106;21.024;2022-12-18T09:07:37;102509.59;;;-2.49;63.00
22031;BME280;11179;52.106;21.024;2022-12-18T09:10:03;102515.34;;;-2.42;62.66
22031;BME280;11179;52.106;21.024;2022-12-18T09:12:28;102525.97;;;-2.52;62.84
22031;BME280;11179;52.106;21.024;2022-12-18T09:14:53;102516.81;;;-2.49;62.79
22031;BME280;11179;52.106;21.024;2022-12-18T09:17:19;102530.53;;;-2.41;62.62
22031;BME280;11179;52.106;21.024;2022-12-18T09:19:44;102530.63;;;-2.31;62.37
22031;BME280;11179;52.106;21.024;2022-12-18T09:22:09;102528.69;;;-2.29;62.44
22031;BME280;11179;52.106;21.024;2022-12-18T09:24:35;102522.56;;;-2.20;62.45
22031;BME280;11179;52.106;21.024;2022-12-18T09:27:00;102533.94;;;-2.17;62.11
22031;BME280;11179;52.106;21.024;2022-12-18T09:29:26;102540.94;;;-2.14;61.91
22031;BME280;11179;52.106;21.024;2022-12-18T09:31:51;102532.97;;;-2.16;62.03
22031;BME280;11179;52.106;21.024;2022-12-18T09:34:16;102545.69;;;-2.18;61.78
22031;BME280;11179;52.106;21.024;2022-12-18T09:36:42;102539.91;;;-2.13;61.69
22031;BME280;11179;52.106;21.024;2022-12-18T09:39:08;102540.03;;;-2.26;61.62
22031;BME280;11179;52.106;21.024;2022-12-18T09:41:44;102553.38;;;-2.24;61.60
22031;BME280;11179;52.106;21.024;2022-12-18T09:46:50;102542.38;;;-2.10;61.50
22031;BME280;11179;52.106;21.024;2022-12-18T09:49:21;102541.41;;;-2.09;61.42
22031;BME280;11179;52.106;21.024;2022-12-18T09:51:59;102548.13;;;-2.04;61.45
22031;BME280;11179;52.106;21.024;2022-12-18T09:54:31;102550.59;;;-2.01;61.31
22031;BME280;11179;52.106;21.024;2022-12-18T09:56:57;102547.75;;;-1.99;61.19
22031;BME280;11179;52.106;21.024;2022-12-18T09:59:36;102547.03;;;-1.90;61.09
22031;BME280;11179;52.106;21.024;2022-12-18T10:02:19;102551.19;;;-1.97;60.84
22031;BME280;11179;52.106;21.024;2022-12-18T10:05:02;102536.63;;;-1.94;60.84
22031;BME280;11179;52.106;21.024;2022-12-18T10:07:59;102538.72;;;-1.87;60.86
22031;BME280;11179;52.106;21.024;2022-12-18T10:15:40;102541.00;;;-1.82;60.53
22031;BME280;11179;52.106;21.024;2022-12-18T10:20:49;102566.84;;;-1.80;60.44
22031;BME280;11179;52.106;21.024;2022-12-18T10:23:57;102571.97;;;-1.77;60.27
22031;BME280;11179;52.106;21.024;2022-12-18T10:26:25;102566.47;;;-1.75;60.49
22031;BME280;11179;52.106;21.024;2022-12-18T10:28:51;102555.34;;;-1.82;60.36
22031;BME280;11179;52.106;21.024;2022-12-18T10:31:21;102576.00;;;-1.71;60.44
22031;BME280;11179;52.106;21.024;2022-12-18T10:33:47;102554.59;;;-1.84;60.37
22031;BME280;11179;52.106;21.024;2022-12-18T10:36:12;102567.56;;;-1.78;60.14
22031;BME280;11179;52.106;21.024;2022-12-18T10:38:38;102571.22;;;-1.68;60.44
22031;BME280;11179;52.106;21.024;2022-12-18T10:41:24;102570.25;;;-1.67;60.17
22031;BME280;11179;52.106;21.024;2022-12-18T10:46:40;102559.22;;;-1.63;60.14
22031;BME280;11179;52.106;21.024;2022-12-18T10:49:18;102568.47;;;-1.45;59.86
22031;BME280;11179;52.106;21.024;2022-12-18T10:51:44;102569.56;;;-1.37;59.90
22031;BME280;11179;52.106;21.024;2022-12-18T10:54:18;102565.78;;;-1.34;59.72
22031;BME280;11179;52.106;21.024;2022-12-18T10:56:46;102561.25;;;-1.34;59.60
22031;BME280;11179;52.106;21.024;2022-12-18T10:59:14;102556.97;;;-1.36;59.71
22031;BME280;11179;52.106;21.024;2022-12-18T11:04:19;102577.41;;;-1.34;59.74
22031;BME280;11179;52.106;21.024;2022-12-18T11:09:27;102579.22;;;-1.23;59.54
22031;BME280;11179;52.106;21.024;2022-12-18T11:11:55;102584.59;;;-1.23;59.45
22031;BME280;11179;52.106;21.024;2022-12-18T11:14:32;102572.09;;;-1.24;59.25
22031;BME280;11179;52.106;21.024;2022-12-18T11:17:00;102580.19;;;-1.24;59.48
22031;BME280;11179;52.106;21.024;2022-12-18T11:19:35;102567.09;;;-1.29;59.21
22031;BME280;11179;52.106;21.024;2022-12-18T11:22:16;102571.50;;;-1.27;59.34
22031;BME280;11179;52.106;21.024;2022-12-18T11:24:53;102574.06;;;-1.26;59.24
22031;BME280;11179;52.106;21.024;2022-12-18T11:27:20;102578.25;;;-1.22;59.27
22031;BME280;11179;52.106;21.024;2022-12-18T11:29:49;102581.00;;;-1.12;59.33
22031;BME280;11179;52.106;21.024;2022-12-18T11:32:38;102571.69;;;-1.08;58.85
22031;BME280;11179;52.106;21.024;2022-12-18T11:35:07;102577.94;;;-1.08;59.02
22031;BME280;11179;52.106;21.024;2022-12-18T11:37:35;102575.81;;;-1.04;58.93
22031;BME280;11179;52.106;21.024;2022-12-18T11:40:09;102575.94;;;-1.06;58.84
22031;BME280;11179;52.106;21.024;2022-12-18T11:43:02;102580.47;;;-1.06;58.61
22031;BME280;11179;52.106;21.024;2022-12-18T11:45:35;102575.00;;;-1.16;58.89
22031;BME280;11179;52.106;21.024;2022-12-18T11:53:12;102582.31;;;-1.07;58.75
22031;BME280;11179;52.106;21.024;2022-12-18T11:55:53;102586.47;;;-1.03;58.72
22031;BME280;11179;52.106;21.024;2022-12-18T12:01:05;102578.44;;;-1.14;58.51
22031;BME280;11179;52.106;21.024;2022-12-18T12:14:46;102588.28;;;-1.24;58.27
22031;BME280;11179;52.106;21.024;2022-12-18T12:20:02;102582.66;;;-1.21;58.39
22031;BME280;11179;52.106;21.024;2022-12-18T12:30:20;102594.13;;;-1.19;57.92
22031;BME280;11179;52.106;21.024;2022-12-18T12:38:05;102615.78;;;-1.52;57.88
22031;BME280;11179;52.106;21.024;2022-12-18T12:40:41;102616.28;;;-1.58;58.30
22031;BME280;11179;52.106;21.024;2022-12-18T12:43:22;102622.50;;;-1.58;58.37
22031;BME280;11179;52.106;21.024;2022-12-18T12:46:12;102624.22;;;-1.57;58.41
22031;BME280;11179;52.106;21.024;2022-12-18T12:48:48;102622.16;;;-1.65;58.58
22031;BME280;11179;52.106;21.024;2022-12-18T12:51:21;102627.16;;;-1.60;58.47
22031;BME280;11179;52.106;21.024;2022-12-18T12:53:48;102631.56;;;-1.59;58.54
22031;BME280;11179;52.106;21.024;2022-12-18T12:56:16;102616.53;;;-1.61;58.46
22031;BME280;11179;52.106;21.024;2022-12-18T12:59:02;102634.41;;;-1.60;58.50
22031;BME280;11179;52.106;21.024;2022-12-18T13:01:39;102648.88;;;-1.61;58.35
22031;BME280;11179;52.106;21.024;2022-12-18T13:04:21;102647.38;;;-1.66;58.28
22031;BME280;11179;52.106;21.024;2022-12-18T13:15:37;102673.34;;;-1.76;58.74
22031;BME280;11179;52.106;21.024;2022-12-18T13:18:25;102670.78;;;-1.77;58.80
22031;BME280;11179;52.106;21.024;2022-12-18T13:21:02;102665.97;;;-1.85;58.79
22031;BME280;11179;52.106;21.024;2022-12-18T13:23:33;102673.81;;;-1.82;58.87
22031;BME280;11179;52.106;21.024;2022-12-18T13:34:18;102672.72;;;-1.90;59.02
22031;BME280;11179;52.106;21.024;2022-12-18T13:36:45;102674.91;;;-1.95;59.18
22031;BME280;11179;52.106;21.024;2022-12-18T13:41:39;102671.22;;;-2.17;59.31
22031;BME280;11179;52.106;21.024;2022-12-18T13:44:13;102677.47;;;-2.16;59.34
22031;BME280;11179;52.106;21.024;2022-12-18T13:46:49;102682.97;;;-2.18;59.49
22031;BME280;11179;52.106;21.024;2022-12-18T13:49:25;102678.91;;;-2.23;59.57
22031;BME280;11179;52.106;21.024;2022-12-18T13:51:53;102676.09;;;-2.22;59.43
22031;BME280;11179;52.106;21.024;2022-12-18T13:56:55;102680.84;;;-2.25;59.66
22031;BME280;11179;52.106;21.024;2022-12-18T13:59:25;102694.31;;;-2.25;59.69
22031;BME280;11179;52.106;21.024;2022-12-18T14:02:00;102693.41;;;-2.37;59.92
22031;BME280;11179;52.106;21.024;2022-12-18T14:04:34;102692.28;;;-2.46;60.09
22031;BME280;11179;52.106;21.024;2022-12-18T14:07:18;102704.25;;;-2.50;59.99
22031;BME280;11179;52.106;21.024;2022-12-18T14:09:50;102698.94;;;-2.62;60.18
22031;BME280;11179;52.106;21.024;2022-12-18T14:18:24;102701.53;;;-2.61;60.35
22031;BME280;11179;52.106;21.024;2022-12-18T14:20:52;102716.16;;;-2.65;60.41
22031;BME280;11179;52.106;21.024;2022-12-18T14:25:54;102719.34;;;-2.71;60.78
22031;BME280;11179;52.106;21.024;2022-12-18T14:28:20;102726.31;;;-2.68;60.73
22031;BME280;11179;52.106;21.024;2022-12-18T14:30:47;102725.19;;;-2.66;60.84
22031;BME280;11179;52.106;21.024;2022-12-18T14:33:30;102712.94;;;-2.81;60.79